sensor_id;sensor_type;location;lat;lon;timestamp;pressure;altitude;pressure_sealevel;temperature;humidity
61484;BME280;47349;55.640;37.692;2023-03-03T00:02:05;97880.75;;;-1.27;100.00
61484;BME280;47349;55.640;37.692;2023-03-03T00:04:32;97875.50;;;-1.27;100.00
61484;BME280;47349;55.640;37.692;2023-03-03T00:06:59;97871.06;;;-1.27;100.00
61484;BME280;47349;55.640;37.692;2023-03-03T00:09:26;97870.06;;;-1.26;100.00
61484;BME280;47349;55.640;37.692;2023-03-03T00:11:54;97864.31;;;-1.30;100.00
61484;BME280;47349;55.640;37.692;2023-03-03T00:14:24;97851.69;;;-1.26;100.00
61484;BME280;47349;55.640;37.692;2023-03-03T00:16:54;97854.19;;;-1.24;100.00
61484;BME280;47349;55.640;37.692;2023-03-03T00:19:21;97859.28;;;-1.23;100.00
61484;BME280;47349;55.640;37.692;2023-03-03T00:21:49;97857.63;;;-1.24;100.00
61484;BME280;47349;55.640;37.692;2023-03-03T00:24:34;97858.31;;;-1.22;100.00
61484;BME280;47349;55.640;37.692;2023-03-03T00:27:08;97851.94;;;-1.19;100.00
61484;BME280;47349;55.640;37.692;2023-03-03T00:29:46;97841.13;;;-1.16;100.00
61484;BME280;47349;55.640;37.692;2023-03-03T00:32:30;97846.25;;;-1.15;100.00
61484;BME280;47349;55.640;37.692;2023-03-03T00:37:45;97843.03;;;-1.09;100.00
61484;BME280;47349;55.640;37.692;2023-03-03T00:40:15;97840.25;;;-1.07;100.00
61484;BME280;47349;55.640;37.692;2023-03-03T00:42:46;97832.22;;;-1.06;100.00
61484;BME280;47349;55.640;37.692;2023-03-03T00:45:23;97819.06;;;-1.06;100.00
61484;BME280;47349;55.640;37.692;2023-03-03T00:47:53;97815.47;;;-1.05;100.00
61484;BME280;47349;55.640;37.692;2023-03-03T00:50:24;97822.22;;;-1.02;100.00
61484;BME280;47349;55.640;37.692;2023-03-03T00:53:00;97808.13;;;-1.01;100.00
61484;BME280;47349;55.640;37.692;2023-03-03T00:55:28;97803.38;;;-0.97;100.00
61484;BME280;47349;55.640;37.692;2023-03-03T00:57:55;97803.38;;;-0.97;100.00
61484;BME280;47349;55.640;37.692;2023-03-03T01:00:28;97812.22;;;-0.98;100.00
61484;BME280;47349;55.640;37.692;2023-03-03T01:02:57;97803.91;;;-0.94;100.00
61484;BME280;47349;55.640;37.692;2023-03-03T01:05:26;97805.25;;;-0.90;100.00
61484;BME280;47349;55.640;37.692;2023-03-03T01:07:53;97808.06;;;-0.91;100.00
61484;BME280;47349;55.640;37.692;2023-03-03T01:10:23;97803.28;;;-0.88;100.00
61484;BME280;47349;55.640;37.692;2023-03-03T01:12:51;97808.72;;;-0.89;100.00
61484;BME280;47349;55.640;37.692;2023-03-03T01:15:19;97809.38;;;-0.87;100.00
61484;BME280;47349;55.640;37.692;2023-03-03T01:17:46;97795.94;;;-0.84;100.00
61484;BME280;47349;55.640;37.692;2023-03-03T01:20:13;97790.69;;;-0.84;100.00
61484;BME280;47349;55.640;37.692;2023-03-03T01:22:41;97788.06;;;-0.84;100.00
61484;BME280;47349;55.640;37.692;2023-03-03T01:25:09;97789.19;;;-0.87;100.00
61484;BME280;47349;55.640;37.692;2023-03-03T01:27:40;97780.44;;;-0.87;100.00
61484;BME280;47349;55.640;37.692;2023-03-03T01:30:07;97769.06;;;-0.96;100.00
61484;BME280;47349;55.640;37.692;2023-03-03T01:32:35;97779.69;;;-0.97;100.00
61484;BME280;47349;55.640;37.692;2023-03-03T01:35:02;97781.28;;;-1.05;100.00
61484;BME280;47349;55.640;37.692;2023-03-03T01:37:30;97771.06;;;-1.08;100.00
61484;BME280;47349;55.640;37.692;2023-03-03T01:39:57;97781.72;;;-1.09;100.00
61484;BME280;47349;55.640;37.692;2023-03-03T01:42:24;97769.13;;;-1.06;100.00
61484;BME280;47349;55.640;37.692;2023-03-03T01:50:46;97759.44;;;-1.05;100.00
61484;BME280;47349;55.640;37.692;2023-03-03T01:53:15;97759.56;;;-1.07;100.00
61484;BME280;47349;55.640;37.692;2023-03-03T01:55:45;97760.53;;;-1.08;100.00
61484;BME280;47349;55.640;37.692;2023-03-03T01:58:13;97763.34;;;-1.09;100.00
61484;BME280;47349;55.640;37.692;2023-03-03T02:00:42;97770.06;;;-1.07;100.00
61484;BME280;47349;55.640;37.692;2023-03-03T02:03:11;97765.81;;;-1.08;100.00
61484;BME280;47349;55.640;37.692;2023-03-03T02:05:38;97768.16;;;-1.05;100.00
61484;BME280;47349;55.640;37.692;2023-03-03T02:08:07;97780.47;;;-1.05;100.00
61484;BME280;47349;55.640;37.692;2023-03-03T02:10:36;97760.25;;;-1.05;100.00
61484;BME280;47349;55.640;37.692;2023-03-03T02:13:03;97759.81;;;-1.00;100.00
61484;BME280;47349;55.640;37.692;2023-03-03T02:15:32;97770.00;;;-0.97;100.00
61484;BME280;47349;55.640;37.692;2023-03-03T02:18:03;97775.13;;;-0.95;100.00
61484;BME280;47349;55.640;37.692;2023-03-03T02:20:35;97763.47;;;-0.93;100.00
61484;BME280;47349;55.640;37.692;2023-03-03T02:28:28;97758.09;;;-0.91;100.00
61484;BME280;47349;55.640;37.692;2023-03-03T02:31:00;97736.72;;;-0.88;100.00
61484;BME280;47349;55.640;37.692;2023-03-03T02:33:27;97716.69;;;-0.89;100.00
61484;BME280;47349;55.640;37.692;2023-03-03T02:35:55;97726.22;;;-0.88;100.00
61484;BME280;47349;55.640;37.692;2023-03-03T02:46:19;97714.28;;;-1.00;100.00
61484;BME280;47349;55.640;37.692;2023-03-03T02:48:47;97718.19;;;-1.05;100.00
61484;BME280;47349;55.640;37.692;2023-03-03T02:51:14;97706.97;;;-1.07;100.00
61484;BME280;47349;55.640;37.692;2023-03-03T02:53:41;97698.97;;;-1.05;100.00
61484;BME280;47349;55.640;37.692;2023-03-03T02:56:08;97706.97;;;-1.07;100.00
61484;BME280;47349;55.640;37.692;2023-03-03T02:58:54;97706.31;;;-1.09;100.00
61484;BME280;47349;55.640;37.692;2023-03-03T03:01:22;97697.31;;;-1.06;100.00
61484;BME280;47349;55.640;37.692;2023-03-03T03:03:51;97696.19;;;-1.04;100.00
61484;BME280;47349;55.640;37.692;2023-03-03T03:06:21;97702.13;;;-1.01;100.00
61484;BME280;47349;55.640;37.692;2023-03-03T03:08:48;97698.53;;;-1.00;100.00
61484;BME280;47349;55.640;37.692;2023-03-03T03:11:15;97693.91;;;-0.98;100.00
61484;BME280;47349;55.640;37.692;2023-03-03T03:13:42;97710.38;;;-0.96;100.00
61484;BME280;47349;55.640;37.692;2023-03-03T03:16:11;97705.94;;;-0.96;100.00
61484;BME280;47349;55.640;37.692;2023-03-03T03:18:38;97697.75;;;-0.93;100.00
61484;BME280;47349;55.640;37.692;2023-03-03T03:21:09;97680.31;;;-0.94;100.00
61484;BME280;47349;55.640;37.692;2023-03-03T03:23:38;97695.28;;;-0.94;100.00
61484;BME280;47349;55.640;37.692;2023-03-03T03:26:06;97686.72;;;-0.96;100.00
61484;BME280;47349;55.640;37.692;2023-03-03T03:28:34;97701.16;;;-1.00;100.00
61484;BME280;47349;55.640;37.692;2023-03-03T03:31:01;97692.56;;;-1.02;100.00
61484;BME280;47349;55.640;37.692;2023-03-03T03:33:29;97690.75;;;-1.02;100.00
61484;BME280;47349;55.640;37.692;2023-03-03T03:35:56;97681.38;;;-1.05;100.00
61484;BME280;47349;55.640;37.692;2023-03-03T03:38:25;97688.28;;;-1.04;100.00
61484;BME280;47349;55.640;37.692;2023-03-03T03:40:53;97689.94;;;-1.02;100.00
61484;BME280;47349;55.640;37.692;2023-03-03T03:43:21;97686.34;;;-1.01;100.00
61484;BME280;47349;55.640;37.692;2023-03-03T03:45:47;97678.47;;;-1.01;100.00
61484;BME280;47349;55.640;37.692;2023-03-03T03:48:15;97689.13;;;-1.03;100.00
61484;BME280;47349;55.640;37.692;2023-03-03T03:50:48;97682.22;;;-1.04;100.00
61484;BME280;47349;55.640;37.692;2023-03-03T03:53:16;97683.03;;;-1.04;100.00
61484;BME280;47349;55.640;37.692;2023-03-03T03:55:44;97688.59;;;-1.07;100.00
61484;BME280;47349;55.640;37.692;2023-03-03T03:58:13;97681.69;;;-1.08;100.00
61484;BME280;47349;55.640;37.692;2023-03-03T04:00:41;97682.50;;;-1.07;100.00
61484;BME280;47349;55.640;37.692;2023-03-03T04:03:08;97685.66;;;-1.04;100.00
61484;BME280;47349;55.640;37.692;2023-03-03T04:05:36;97673.22;;;-1.01;100.00
61484;BME280;47349;55.640;37.692;2023-03-03T04:08:03;97686.34;;;-1.01;100.00
61484;BME280;47349;55.640;37.692;2023-03-03T04:10:32;97668.63;;;-0.99;100.00
61484;BME280;47349;55.640;37.692;2023-03-03T04:12:59;97672.88;;;-0.98;100.00
61484;BME280;47349;55.640;37.692;2023-03-03T04:15:26;97668.44;;;-0.98;100.00
61484;BME280;47349;55.640;37.692;2023-03-03T04:17:54;97668.31;;;-0.96;100.00
61484;BME280;47349;55.640;37.692;2023-03-03T04:20:21;97667.16;;;-0.94;100.00
61484;BME280;47349;55.640;37.692;2023-03-03T04:22:49;97659.97;;;-0.92;100.00
61484;BME280;47349;55.640;37.692;2023-03-03T04:25:17;97658.00;;;-0.90;100.00
61484;BME280;47349;55.640;37.692;2023-03-03T04:27:46;97651.59;;;-0.87;100.00
61484;BME280;47349;55.640;37.692;2023-03-03T04:30:15;97667.00;;;-0.92;100.00
61484;BME280;47349;55.640;37.692;2023-03-03T04:32:46;97659.44;;;-0.95;100.00
61484;BME280;47349;55.640;37.692;2023-03-03T04:35:22;97662.06;;;-0.95;100.00
61484;BME280;47349;55.640;37.692;2023-03-03T04:37:49;97664.69;;;-0.95;100.00
61484;BME280;47349;55.640;37.692;2023-03-03T04:40:16;97666.81;;;-0.99;100.00
61484;BME280;47349;55.640;37.692;2023-03-03T04:42:46;97661.09;;;-0.94;100.00
61484;BME280;47349;55.640;37.692;2023-03-03T04:45:13;97659.22;;;-1.02;100.00
61484;BME280;47349;55.640;37.692;2023-03-03T04:47:40;97675.50;;;-0.98;100.00
61484;BME280;47349;55.640;37.692;2023-03-03T04:50:09;97668.63;;;-0.99;100.00
61484;BME280;47349;55.640;37.692;2023-03-03T04:52:39;97669.44;;;-0.99;100.00
61484;BME280;47349;55.640;37.692;2023-03-03T04:55:08;97656.94;;;-0.97;100.00
61484;BME280;47349;55.640;37.692;2023-03-03T04:57:37;97652.00;;;-1.00;100.00
61484;BME280;47349;55.640;37.692;2023-03-03T05:00:07;97653.66;;;-0.99;100.00
61484;BME280;47349;55.640;37.692;2023-03-03T05:02:39;97659.09;;;-1.00;100.00
61484;BME280;47349;55.640;37.692;2023-03-03T05:05:07;97656.44;;;-1.00;100.00
61484;BME280;47349;55.640;37.692;2023-03-03T05:07:39;97665.53;;;-0.95;100.00
61484;BME280;47349;55.640;37.692;2023-03-03T05:10:07;97653.50;;;-0.97;100.00
61484;BME280;47349;55.640;37.692;2023-03-03T05:12:35;97664.19;;;-0.99;100.00
61484;BME280;47349;55.640;37.692;2023-03-03T05:15:02;97670.63;;;-0.93;100.00
61484;BME280;47349;55.640;37.692;2023-03-03T05:17:30;97675.88;;;-0.93;100.00
61484;BME280;47349;55.640;37.692;2023-03-03T05:19:59;97666.88;;;-0.91;100.00
61484;BME280;47349;55.640;37.692;2023-03-03T05:22:29;97652.22;;;-0.93;100.00
61484;BME280;47349;55.640;37.692;2023-03-03T05:24:56;97658.16;;;-0.91;100.00
61484;BME280;47349;55.640;37.692;2023-03-03T05:27:24;97668.53;;;-0.90;100.00
61484;BME280;47349;55.640;37.692;2023-03-03T05:29:51;97662.28;;;-0.89;100.00
61484;BME280;47349;55.640;37.692;2023-03-03T05:32:18;97670.00;;;-0.87;100.00
61484;BME280;47349;55.640;37.692;2023-03-03T05:34:45;97669.72;;;-0.84;100.00
61484;BME280;47349;55.640;37.692;2023-03-03T05:37:15;97675.66;;;-0.82;100.00
61484;BME280;47349;55.640;37.692;2023-03-03T05:39:42;97667.44;;;-0.79;100.00
61484;BME280;47349;55.640;37.692;2023-03-03T05:42:11;97680.75;;;-0.81;100.00
61484;BME280;47349;55.640;37.692;2023-03-03T05:44:38;97671.72;;;-0.78;100.00
61484;BME280;47349;55.640;37.692;2023-03-03T05:47:06;97681.28;;;-0.77;100.00
61484;BME280;47349;55.640;37.692;2023-03-03T05:49:33;97671.88;;;-0.80;100.00
61484;BME280;47349;55.640;37.692;2023-03-03T05:52:03;97666.63;;;-0.80;100.00
61484;BME280;47349;55.640;37.692;2023-03-03T05:54:30;97666.44;;;-0.78;100.00
61484;BME280;47349;55.640;37.692;2023-03-03T05:56:57;97675.03;;;-0.76;100.00
61484;BME280;47349;55.640;37.692;2023-03-03T05:59:27;97658.28;;;-0.75;100.00
61484;BME280;47349;55.640;37.692;2023-03-03T06:01:55;97670.13;;;-0.71;100.00
61484;BME280;47349;55.640;37.692;2023-03-03T06:04:23;97671.94;;;-0.71;100.00
61484;BME280;47349;55.640;37.692;2023-03-03T06:06:51;97679.66;;;-0.70;100.00
61484;BME280;47349;55.640;37.692;2023-03-03T06:09:19;97669.00;;;-0.68;100.00
61484;BME280;47349;55.640;37.692;2023-03-03T06:11:47;97684.31;;;-0.64;100.00
61484;BME280;47349;55.640;37.692;2023-03-03T06:14:17;97673.19;;;-0.58;100.00
61484;BME280;47349;55.640;37.692;2023-03-03T06:16:44;97685.88;;;-0.53;100.00
61484;BME280;47349;55.640;37.692;2023-03-03T06:19:13;97671.22;;;-0.56;100.00
61484;BME280;47349;55.640;37.692;2023-03-03T06:21:48;97676.00;;;-0.51;98.94
61484;BME280;47349;55.640;37.692;2023-03-03T06:24:29;97680.81;;;-0.46;99.52
61484;BME280;47349;55.640;37.692;2023-03-03T06:27:11;97689.34;;;-0.53;98.36
61484;BME280;47349;55.640;37.692;2023-03-03T06:29:53;97680.75;;;-0.55;97.52
61484;BME280;47349;55.640;37.692;2023-03-03T06:32:30;97683.75;;;-0.49;97.82
61484;BME280;47349;55.640;37.692;2023-03-03T06:34:58;97684.31;;;-0.38;97.15
61484;BME280;47349;55.640;37.692;2023-03-03T06:37:29;97690.41;;;-0.37;97.29
61484;BME280;47349;55.640;37.692;2023-03-03T06:40:02;97685.66;;;-0.34;96.63
61484;BME280;47349;55.640;37.692;2023-03-03T06:42:43;97699.47;;;-0.32;95.54
61484;BME280;47349;55.640;37.692;2023-03-03T06:45:40;97681.88;;;-0.31;95.52
61484;BME280;47349;55.640;37.692;2023-03-03T06:48:09;97683.38;;;-0.29;95.70
61484;BME280;47349;55.640;37.692;2023-03-03T06:50:36;97690.50;;;-0.21;94.26
61484;BME280;47349;55.640;37.692;2023-03-03T06:53:12;97689.84;;;-0.23;93.57
61484;BME280;47349;55.640;37.692;2023-03-03T06:55:55;97693.13;;;-0.21;93.76
61484;BME280;47349;55.640;37.692;2023-03-03T06:59:40;97691.66;;;-0.15;93.05
61484;BME280;47349;55.640;37.692;2023-03-03T07:09:44;97687.19;;;-0.23;94.62
61484;BME280;47349;55.640;37.692;2023-03-03T07:20:27;97683.56;;;-0.22;95.15
61484;BME280;47349;55.640;37.692;2023-03-03T07:23:25;97708.84;;;-0.29;95.19
61484;BME280;47349;55.640;37.692;2023-03-03T07:26:12;97700.31;;;-0.31;95.31
61484;BME280;47349;55.640;37.692;2023-03-03T07:29:00;97706.72;;;-0.34;94.40
61484;BME280;47349;55.640;37.692;2023-03-03T07:31:45;97712.47;;;-0.30;94.01
61484;BME280;47349;55.640;37.692;2023-03-03T07:34:35;97700.59;;;-0.34;93.96
61484;BME280;47349;55.640;37.692;2023-03-03T07:37:37;97691.66;;;-0.23;94.26
61484;BME280;47349;55.640;37.692;2023-03-03T07:43:29;97698.09;;;-0.18;92.34
61484;BME280;47349;55.640;37.692;2023-03-03T07:49:10;97715.16;;;-0.22;92.03
61484;BME280;47349;55.640;37.692;2023-03-03T07:51:51;97687.34;;;-0.24;92.09
61484;BME280;47349;55.640;37.692;2023-03-03T07:54:52;97701.72;;;-0.11;92.27
61484;BME280;47349;55.640;37.692;2023-03-03T07:57:36;97706.63;;;-0.16;91.59
61484;BME280;47349;55.640;37.692;2023-03-03T08:03:04;97703.69;;;-0.13;92.03
61484;BME280;47349;55.640;37.692;2023-03-03T08:05:49;97713.72;;;-0.16;91.15
61484;BME280;47349;55.640;37.692;2023-03-03T08:08:34;97687.91;;;-0.13;91.29
61484;BME280;47349;55.640;37.692;2023-03-03T08:11:12;97706.34;;;-0.13;91.07
61484;BME280;47349;55.640;37.692;2023-03-03T08:13:53;97718.88;;;-0.07;90.82
61484;BME280;47349;55.640;37.692;2023-03-03T08:16:29;97710.50;;;-0.02;90.20
61484;BME280;47349;55.640;37.692;2023-03-03T08:19:16;97723.50;;;-0.01;90.00
61484;BME280;47349;55.640;37.692;2023-03-03T08:21:59;97700.16;;;0.05;88.95
61484;BME280;47349;55.640;37.692;2023-03-03T08:24:30;97704.81;;;0.11;88.34
61484;BME280;47349;55.640;37.692;2023-03-03T08:27:11;97710.41;;;0.16;88.23
61484;BME280;47349;55.640;37.692;2023-03-03T08:29:47;97735.13;;;0.23;86.89
61484;BME280;47349;55.640;37.692;2023-03-03T08:32:17;97714.44;;;0.36;86.23
61484;BME280;47349;55.640;37.692;2023-03-03T08:34:59;97705.53;;;0.37;86.29
61484;BME280;47349;55.640;37.692;2023-03-03T08:37:40;97710.88;;;0.54;86.31
61484;BME280;47349;55.640;37.692;2023-03-03T08:40:22;97712.97;;;0.42;87.50
61484;BME280;47349;55.640;37.692;2023-03-03T08:43:03;97708.50;;;0.34;88.57
61484;BME280;47349;55.640;37.692;2023-03-03T08:45:44;97721.00;;;0.32;89.54
61484;BME280;47349;55.640;37.692;2023-03-03T08:48:27;97717.72;;;0.38;90.59
61484;BME280;47349;55.640;37.692;2023-03-03T08:51:09;97716.06;;;0.29;90.64
61484;BME280;47349;55.640;37.692;2023-03-03T08:53:50;97724.66;;;0.39;92.28
61484;BME280;47349;55.640;37.692;2023-03-03T08:56:31;97730.94;;;0.46;91.64
61484;BME280;47349;55.640;37.692;2023-03-03T08:59:12;97728.47;;;0.53;91.49
61484;BME280;47349;55.640;37.692;2023-03-03T09:01:54;97727.66;;;0.44;91.02
61484;BME280;47349;55.640;37.692;2023-03-03T09:04:35;97739.00;;;0.45;91.56
61484;BME280;47349;55.640;37.692;2023-03-03T09:07:16;97741.16;;;0.49;91.15
61484;BME280;47349;55.640;37.692;2023-03-03T09:09:43;97736.91;;;0.48;90.98
61484;BME280;47349;55.640;37.692;2023-03-03T09:12:29;97728.13;;;0.48;91.47
61484;BME280;47349;55.640;37.692;2023-03-03T09:15:18;97727.19;;;0.49;91.09
61484;BME280;47349;55.640;37.692;2023-03-03T09:17:46;97735.09;;;0.49;91.27
61484;BME280;47349;55.640;37.692;2023-03-03T09:22:49;97729.34;;;0.62;89.78
61484;BME280;47349;55.640;37.692;2023-03-03T09:25:18;97731.31;;;0.60;89.26
61484;BME280;47349;55.640;37.692;2023-03-03T09:27:48;97733.28;;;0.58;89.06
61484;BME280;47349;55.640;37.692;2023-03-03T09:30:26;97718.13;;;0.60;89.30
61484;BME280;47349;55.640;37.692;2023-03-03T09:32:56;97724.09;;;0.70;88.66
61484;BME280;47349;55.640;37.692;2023-03-03T09:35:34;97729.34;;;0.70;88.98
61484;BME280;47349;55.640;37.692;2023-03-03T09:38:39;97760.22;;;0.77;88.55
61484;BME280;47349;55.640;37.692;2023-03-03T09:48:48;97711.25;;;0.83;89.78
61484;BME280;47349;55.640;37.692;2023-03-03T09:51:26;97724.75;;;0.80;88.65
61484;BME280;47349;55.640;37.692;2023-03-03T09:56:46;97724.44;;;0.83;87.54
61484;BME280;47349;55.640;37.692;2023-03-03T10:01:45;97738.47;;;0.84;87.40
61484;BME280;47349;55.640;37.692;2023-03-03T10:12:19;97741.38;;;0.72;85.15
61484;BME280;47349;55.640;37.692;2023-03-03T10:17:36;97734.66;;;0.78;85.13
61484;BME280;47349;55.640;37.692;2023-03-03T10:30:43;97723.16;;;1.03;84.76
61484;BME280;47349;55.640;37.692;2023-03-03T10:33:31;97764.38;;;1.05;84.05
61484;BME280;47349;55.640;37.692;2023-03-03T10:38:44;97736.66;;;0.92;82.58
61484;BME280;47349;55.640;37.692;2023-03-03T10:43:56;97733.69;;;1.03;81.66
61484;BME280;47349;55.640;37.692;2023-03-03T10:51:32;97726.13;;;1.41;81.05
61484;BME280;47349;55.640;37.692;2023-03-03T10:56:49;97726.13;;;1.17;80.37
61484;BME280;47349;55.640;37.692;2023-03-03T11:01:58;97721.66;;;1.01;80.30
61484;BME280;47349;55.640;37.692;2023-03-03T11:10:00;97731.88;;;1.04;81.66
61484;BME280;47349;55.640;37.692;2023-03-03T11:15:18;97771.91;;;0.91;80.98
61484;BME280;47349;55.640;37.692;2023-03-03T11:25:26;97740.59;;;0.88;82.14
61484;BME280;47349;55.640;37.692;2023-03-03T11:30:58;97745.88;;;0.96;84.56
61484;BME280;47349;55.640;37.692;2023-03-03T11:33:33;97749.22;;;1.07;85.16
61484;BME280;47349;55.640;37.692;2023-03-03T11:44:03;97732.38;;;0.99;81.58
61484;BME280;47349;55.640;37.692;2023-03-03T11:49:17;97739.31;;;1.09;81.60
61484;BME280;47349;55.640;37.692;2023-03-03T11:56:53;97741.59;;;0.95;80.62
61484;BME280;47349;55.640;37.692;2023-03-03T12:04:50;97755.94;;;1.01;80.33
61484;BME280;47349;55.640;37.692;2023-03-03T12:12:22;97744.91;;;0.97;81.29
61484;BME280;47349;55.640;37.692;2023-03-03T12:14:57;97736.81;;;0.99;80.85
61484;BME280;47349;55.640;37.692;2023-03-03T12:17:49;97757.09;;;0.98;80.63
61484;BME280;47349;55.640;37.692;2023-03-03T12:28:21;97757.75;;;1.00;80.71
61484;BME280;47349;55.640;37.692;2023-03-03T12:46:34;97740.13;;;1.01;82.26
61484;BME280;47349;55.640;37.692;2023-03-03T12:49:06;97752.81;;;1.06;82.29
61484;BME280;47349;55.640;37.692;2023-03-03T12:56:53;97754.16;;;1.10;81.63
61484;BME280;47349;55.640;37.692;2023-03-03T13:02:02;97749.22;;;1.07;80.69
61484;BME280;47349;55.640;37.692;2023-03-03T13:04:47;97749.53;;;1.03;80.73
61484;BME280;47349;55.640;37.692;2023-03-03T13:07:25;97775.41;;;1.00;81.24
61484;BME280;47349;55.640;37.692;2023-03-03T13:14:56;97751.84;;;0.98;80.85
61484;BME280;47349;55.640;37.692;2023-03-03T13:17:34;97758.75;;;0.99;81.40
61484;BME280;47349;55.640;37.692;2023-03-03T13:20:18;97749.69;;;1.02;80.96
61484;BME280;47349;55.640;37.692;2023-03-03T13:23:09;97753.97;;;1.03;80.80
61484;BME280;47349;55.640;37.692;2023-03-03T13:25:58;97752.00;;;1.05;80.94
61484;BME280;47349;55.640;37.692;2023-03-03T13:31:15;97740.94;;;1.10;80.32
61484;BME280;47349;55.640;37.692;2023-03-03T13:33:58;97755.13;;;1.09;79.74
61484;BME280;47349;55.640;37.692;2023-03-03T13:36:38;97746.56;;;1.07;79.28
61484;BME280;47349;55.640;37.692;2023-03-03T13:39:27;97731.72;;;1.06;79.58
61484;BME280;47349;55.640;37.692;2023-03-03T13:42:00;97750.53;;;1.02;79.16
61484;BME280;47349;55.640;37.692;2023-03-03T13:44:33;97730.06;;;1.05;79.16
61484;BME280;47349;55.640;37.692;2023-03-03T13:53:17;97736.50;;;1.02;77.97
61484;BME280;47349;55.640;37.692;2023-03-03T13:55:34;97738.66;;;0.98;77.10
61484;BME280;47349;55.640;37.692;2023-03-03T14:06:02;97727.09;;;0.99;76.66
61484;BME280;47349;55.640;37.692;2023-03-03T14:08:43;97734.38;;;0.97;76.73
61484;BME280;47349;55.640;37.692;2023-03-03T14:24:21;97746.19;;;0.85;75.85
61484;BME280;47349;55.640;37.692;2023-03-03T14:26:52;97746.38;;;0.84;75.97
61484;BME280;47349;55.640;37.692;2023-03-03T14:31:57;97738.25;;;0.77;75.01
61484;BME280;47349;55.640;37.692;2023-03-03T14:34:38;97750.63;;;0.76;75.90
61484;BME280;47349;55.640;37.692;2023-03-03T14:37:26;97749.97;;;0.74;75.31
61484;BME280;47349;55.640;37.692;2023-03-03T14:40:13;97744.38;;;0.77;75.74
61484;BME280;47349;55.640;37.692;2023-03-03T14:47:56;97751.44;;;0.77;75.97
61484;BME280;47349;55.640;37.692;2023-03-03T14:50:31;97749.16;;;0.74;75.30
61484;BME280;47349;55.640;37.692;2023-03-03T14:55:36;97753.09;;;0.70;75.83
61484;BME280;47349;55.640;37.692;2023-03-03T15:01:35;97750.09;;;0.65;75.39
61484;BME280;47349;55.640;37.692;2023-03-03T15:03:46;97762.59;;;0.63;75.17
61484;BME280;47349;55.640;37.692;2023-03-03T15:08:55;97766.75;;;0.65;75.85
61484;BME280;47349;55.640;37.692;2023-03-03T15:11:29;97764.13;;;0.65;75.64
61484;BME280;47349;55.640;37.692;2023-03-03T15:14:17;97765.63;;;0.68;75.69
61484;BME280;47349;55.640;37.692;2023-03-03T15:22:45;97754.69;;;0.63;75.53
61484;BME280;47349;55.640;37.692;2023-03-03T15:36:03;97767.88;;;0.63;76.26
61484;BME280;47349;55.640;37.692;2023-03-03T15:41:45;97773.00;;;0.64;75.63
61484;BME280;47349;55.640;37.692;2023-03-03T15:44:15;97783.03;;;0.61;75.84
61484;BME280;47349;55.640;37.692;2023-03-03T15:49:29;97773.84;;;0.65;75.84
61484;BME280;47349;55.640;37.692;2023-03-03T16:02:48;97773.16;;;0.63;75.80
61484;BME280;47349;55.640;37.692;2023-03-03T16:05:21;97787.50;;;0.60;75.75
61484;BME280;47349;55.640;37.692;2023-03-03T16:07:54;97778.44;;;0.63;75.64
61484;BME280;47349;55.640;37.692;2023-03-03T16:10:31;97778.44;;;0.63;75.82
61484;BME280;47349;55.640;37.692;2023-03-03T16:13:27;97771.50;;;0.62;75.64
61484;BME280;47349;55.640;37.692;2023-03-03T16:16:12;97772.31;;;0.62;75.73
61484;BME280;47349;55.640;37.692;2023-03-03T16:21:17;97777.47;;;0.64;76.09
61484;BME280;47349;55.640;37.692;2023-03-03T16:23:50;97780.09;;;0.64;76.24
61484;BME280;47349;55.640;37.692;2023-03-03T16:31:52;97780.09;;;0.64;75.69
61484;BME280;47349;55.640;37.692;2023-03-03T16:37:20;97766.09;;;0.63;76.14
61484;BME280;47349;55.640;37.692;2023-03-03T16:39:57;97764.28;;;0.64;76.04
61484;BME280;47349;55.640;37.692;2023-03-03T16:42:28;97764.28;;;0.64;75.64
61484;BME280;47349;55.640;37.692;2023-03-03T16:52:52;97759.16;;;0.62;76.00
61484;BME280;47349;55.640;37.692;2023-03-03T16:55:24;97762.59;;;0.63;75.71
61484;BME280;47349;55.640;37.692;2023-03-03T17:03:27;97755.69;;;0.62;76.48
61484;BME280;47349;55.640;37.692;2023-03-03T17:40:52;97762.53;;;0.38;77.04
61484;BME280;47349;55.640;37.692;2023-03-03T17:45:59;97761.91;;;0.44;78.00
61484;BME280;47349;55.640;37.692;2023-03-03T17:51:19;97757.41;;;0.37;77.75
61484;BME280;47349;55.640;37.692;2023-03-03T18:07:25;97757.16;;;0.14;76.39
61484;BME280;47349;55.640;37.692;2023-03-03T18:10:00;97763.41;;;0.13;76.13
61484;BME280;47349;55.640;37.692;2023-03-03T18:17:49;97759.78;;;0.14;75.38
61484;BME280;47349;55.640;37.692;2023-03-03T18:22:55;97752.22;;;0.11;75.78
61484;BME280;47349;55.640;37.692;2023-03-03T18:28:19;97760.25;;;0.09;75.73
61484;BME280;47349;55.640;37.692;2023-03-03T18:30:55;97770.28;;;0.06;75.52
61484;BME280;47349;55.640;37.692;2023-03-03T18:33:40;97764.34;;;0.04;75.56
61484;BME280;47349;55.640;37.692;2023-03-03T18:36:33;97760.22;;;0.01;74.92
61484;BME280;47349;55.640;37.692;2023-03-03T18:39:02;97758.88;;;-0.03;74.47
61484;BME280;47349;55.640;37.692;2023-03-03T18:41:31;97767.59;;;-0.03;74.48
61484;BME280;47349;55.640;37.692;2023-03-03T18:44:02;97761.81;;;-0.06;74.42
61484;BME280;47349;55.640;37.692;2023-03-03T18:46:49;97761.28;;;-0.10;74.56
61484;BME280;47349;55.640;37.692;2023-03-03T18:49:17;97758.00;;;-0.12;74.87
61484;BME280;47349;55.640;37.692;2023-03-03T19:04:42;97764.41;;;-0.40;75.60
61484;BME280;47349;55.640;37.692;2023-03-03T19:07:16;97761.41;;;-0.45;76.09
61484;BME280;47349;55.640;37.692;2023-03-03T19:15:06;97762.28;;;-0.63;77.14
61484;BME280;47349;55.640;37.692;2023-03-03T19:20:08;97766.47;;;-0.70;78.39
61484;BME280;47349;55.640;37.692;2023-03-03T19:22:47;97771.38;;;-0.75;78.85
61484;BME280;47349;55.640;37.692;2023-03-03T19:25:16;97759.50;;;-0.79;79.35
61484;BME280;47349;55.640;37.692;2023-03-03T19:27:49;97767.69;;;-0.82;79.55
61484;BME280;47349;55.640;37.692;2023-03-03T19:33:06;97762.03;;;-0.87;79.99
61484;BME280;47349;55.640;37.692;2023-03-03T19:35:44;97756.78;;;-0.87;80.67